sensor_id;sensor_type;location;lat;lon;timestamp;P1;durP1;ratioP1;P2;durP2;ratioP2
52940;SDS011;62001;53.366;6.636;2023-03-04T00:01:03;24.83;;;2.87;;
52940;SDS011;62001;53.366;6.636;2023-03-04T00:03:29;17.23;;;2.87;;
52940;SDS011;62001;53.366;6.636;2023-03-04T00:05:55;16.27;;;2.63;;
52940;SDS011;62001;53.366;6.636;2023-03-04T00:08:21;16.77;;;2.60;;
52940;SDS011;62001;53.366;6.636;2023-03-04T00:10:47;18.37;;;2.60;;
52940;SDS011;62001;53.366;6.636;2023-03-04T00:13:12;22.83;;;3.00;;
52940;SDS011;62001;53.366;6.636;2023-03-04T00:15:39;18.60;;;2.80;;
52940;SDS011;62001;53.366;6.636;2023-03-04T00:18:04;15.60;;;2.97;;
52940;SDS011;62001;53.366;6.636;2023-03-04T00:20:30;12.57;;;2.20;;
52940;SDS011;62001;53.366;6.636;2023-03-04T00:22:56;17.13;;;2.57;;
52940;SDS011;62001;53.366;6.636;2023-03-04T00:25:22;13.73;;;2.40;;
52940;SDS011;62001;53.366;6.636;2023-03-04T00:27:48;20.90;;;3.20;;
52940;SDS011;62001;53.366;6.636;2023-03-04T00:30:14;16.80;;;3.03;;
52940;SDS011;62001;53.366;6.636;2023-03-04T00:32:40;21.13;;;3.23;;
52940;SDS011;62001;53.366;6.636;2023-03-04T00:35:06;21.30;;;3.13;;
52940;SDS011;62001;53.366;6.636;2023-03-04T00:37:32;18.67;;;3.40;;
52940;SDS011;62001;53.366;6.636;2023-03-04T00:39:57;14.97;;;3.07;;
52940;SDS011;62001;53.366;6.636;2023-03-04T00:42:23;18.50;;;3.23;;
52940;SDS011;62001;53.366;6.636;2023-03-04T00:44:49;25.00;;;3.60;;
52940;SDS011;62001;53.366;6.636;2023-03-04T00:47:16;14.13;;;3.13;;
52940;SDS011;62001;53.366;6.636;2023-03-04T00:49:41;19.80;;;3.13;;
52940;SDS011;62001;53.366;6.636;2023-03-04T00:52:07;20.60;;;3.50;;
52940;SDS011;62001;53.366;6.636;2023-03-04T00:54:34;20.93;;;3.43;;
52940;SDS011;62001;53.366;6.636;2023-03-04T00:57:00;16.37;;;3.20;;
52940;SDS011;62001;53.366;6.636;2023-03-04T00:59:25;17.17;;;2.90;;
52940;SDS011;62001;53.366;6.636;2023-03-04T01:01:51;16.87;;;3.17;;
52940;SDS011;62001;53.366;6.636;2023-03-04T01:04:17;16.00;;;2.90;;
52940;SDS011;62001;53.366;6.636;2023-03-04T01:06:43;15.30;;;3.07;;
52940;SDS011;62001;53.366;6.636;2023-03-04T01:09:09;14.87;;;2.80;;
52940;SDS011;62001;53.366;6.636;2023-03-04T01:11:34;18.53;;;3.23;;
52940;SDS011;62001;53.366;6.636;2023-03-04T01:14:00;18.27;;;2.90;;
52940;SDS011;62001;53.366;6.636;2023-03-04T01:16:26;16.47;;;3.10;;
52940;SDS011;62001;53.366;6.636;2023-03-04T01:18:52;13.73;;;2.70;;
52940;SDS011;62001;53.366;6.636;2023-03-04T01:21:18;16.57;;;2.50;;
52940;SDS011;62001;53.366;6.636;2023-03-04T01:23:44;16.33;;;2.87;;
52940;SDS011;62001;53.366;6.636;2023-03-04T01:26:09;22.23;;;2.83;;
52940;SDS011;62001;53.366;6.636;2023-03-04T01:28:37;9.83;;;2.10;;
52940;SDS011;62001;53.366;6.636;2023-03-04T01:31:06;12.37;;;2.23;;
52940;SDS011;62001;53.366;6.636;2023-03-04T01:33:32;14.77;;;2.53;;
52940;SDS011;62001;53.366;6.636;2023-03-04T01:35:58;19.07;;;2.67;;
52940;SDS011;62001;53.366;6.636;2023-03-04T01:38:23;11.10;;;2.10;;
52940;SDS011;62001;53.366;6.636;2023-03-04T01:40:49;10.77;;;2.13;;
52940;SDS011;62001;53.366;6.636;2023-03-04T01:43:20;14.63;;;2.30;;
52940;SDS011;62001;53.366;6.636;2023-03-04T01:45:49;14.60;;;2.27;;
52940;SDS011;62001;53.366;6.636;2023-03-04T01:48:17;13.90;;;2.00;;
52940;SDS011;62001;53.366;6.636;2023-03-04T01:50:50;19.73;;;2.70;;
52940;SDS011;62001;53.366;6.636;2023-03-04T01:53:18;15.27;;;2.63;;
52940;SDS011;62001;53.366;6.636;2023-03-04T01:55:46;13.40;;;2.40;;
52940;SDS011;62001;53.366;6.636;2023-03-04T01:58:12;13.53;;;2.27;;
52940;SDS011;62001;53.366;6.636;2023-03-04T02:00:38;16.40;;;2.50;;
52940;SDS011;62001;53.366;6.636;2023-03-04T02:03:10;22.33;;;2.80;;
52940;SDS011;62001;53.366;6.636;2023-03-04T02:05:38;14.93;;;2.97;;
52940;SDS011;62001;53.366;6.636;2023-03-04T02:08:07;18.95;;;2.95;;
52940;SDS011;62001;53.366;6.636;2023-03-04T02:10:33;15.60;;;2.77;;
52940;SDS011;62001;53.366;6.636;2023-03-04T02:13:00;19.03;;;2.67;;
52940;SDS011;62001;53.366;6.636;2023-03-04T02:15:27;15.37;;;2.70;;
52940;SDS011;62001;53.366;6.636;2023-03-04T02:17:53;18.70;;;3.00;;
52940;SDS011;62001;53.366;6.636;2023-03-04T02:26:12;15.27;;;2.80;;
52940;SDS011;62001;53.366;6.636;2023-03-04T02:28:46;17.63;;;2.50;;
52940;SDS011;62001;53.366;6.636;2023-03-04T02:33:44;14.23;;;2.33;;
52940;SDS011;62001;53.366;6.636;2023-03-04T02:36:10;13.83;;;2.20;;
52940;SDS011;62001;53.366;6.636;2023-03-04T02:38:36;12.77;;;2.63;;
52940;SDS011;62001;53.366;6.636;2023-03-04T02:41:02;15.77;;;2.50;;
52940;SDS011;62001;53.366;6.636;2023-03-04T02:43:30;15.90;;;2.70;;
52940;SDS011;62001;53.366;6.636;2023-03-04T02:45:56;11.53;;;2.27;;
52940;SDS011;62001;53.366;6.636;2023-03-04T02:48:21;16.17;;;3.00;;
52940;SDS011;62001;53.366;6.636;2023-03-04T02:50:51;18.73;;;2.97;;
52940;SDS011;62001;53.366;6.636;2023-03-04T02:53:18;11.00;;;2.33;;
52940;SDS011;62001;53.366;6.636;2023-03-04T02:55:45;14.37;;;2.80;;
52940;SDS011;62001;53.366;6.636;2023-03-04T02:58:11;19.93;;;3.37;;
52940;SDS011;62001;53.366;6.636;2023-03-04T03:00:38;21.10;;;3.10;;
52940;SDS011;62001;53.366;6.636;2023-03-04T03:03:04;21.83;;;3.60;;
52940;SDS011;62001;53.366;6.636;2023-03-04T03:05:31;20.70;;;2.90;;
52940;SDS011;62001;53.366;6.636;2023-03-04T03:07:58;23.77;;;2.80;;
52940;SDS011;62001;53.366;6.636;2023-03-04T03:10:25;14.67;;;3.03;;
52940;SDS011;62001;53.366;6.636;2023-03-04T03:12:51;18.20;;;3.20;;
52940;SDS011;62001;53.366;6.636;2023-03-04T03:15:17;15.37;;;2.67;;
52940;SDS011;62001;53.366;6.636;2023-03-04T03:17:43;14.20;;;2.77;;
52940;SDS011;62001;53.366;6.636;2023-03-04T03:20:10;18.90;;;2.57;;
52940;SDS011;62001;53.366;6.636;2023-03-04T03:22:37;16.30;;;2.67;;
52940;SDS011;62001;53.366;6.636;2023-03-04T03:25:03;16.57;;;2.67;;
52940;SDS011;62001;53.366;6.636;2023-03-04T03:27:30;11.20;;;2.23;;
52940;SDS011;62001;53.366;6.636;2023-03-04T03:29:55;19.13;;;2.70;;
52940;SDS011;62001;53.366;6.636;2023-03-04T03:32:21;11.90;;;2.20;;
52940;SDS011;62001;53.366;6.636;2023-03-04T03:34:47;16.57;;;2.17;;
52940;SDS011;62001;53.366;6.636;2023-03-04T03:37:13;16.17;;;2.23;;
52940;SDS011;62001;53.366;6.636;2023-03-04T03:39:39;12.13;;;2.00;;
52940;SDS011;62001;53.366;6.636;2023-03-04T03:42:05;11.27;;;2.27;;
52940;SDS011;62001;53.366;6.636;2023-03-04T03:44:30;12.43;;;2.07;;
52940;SDS011;62001;53.366;6.636;2023-03-04T03:46:56;14.97;;;2.13;;
52940;SDS011;62001;53.366;6.636;2023-03-04T03:49:22;12.80;;;2.20;;
52940;SDS011;62001;53.366;6.636;2023-03-04T03:51:48;10.60;;;1.83;;
52940;SDS011;62001;53.366;6.636;2023-03-04T03:54:14;14.53;;;2.10;;
52940;SDS011;62001;53.366;6.636;2023-03-04T03:56:40;12.63;;;1.70;;
52940;SDS011;62001;53.366;6.636;2023-03-04T03:59:06;14.77;;;1.87;;
52940;SDS011;62001;53.366;6.636;2023-03-04T04:01:32;13.03;;;2.07;;
52940;SDS011;62001;53.366;6.636;2023-03-04T04:03:58;13.70;;;2.10;;
52940;SDS011;62001;53.366;6.636;2023-03-04T04:06:24;15.03;;;2.07;;
52940;SDS011;62001;53.366;6.636;2023-03-04T04:08:50;11.93;;;1.97;;
52940;SDS011;62001;53.366;6.636;2023-03-04T04:11:17;13.93;;;2.10;;
52940;SDS011;62001;53.366;6.636;2023-03-04T04:13:43;17.93;;;2.33;;
52940;SDS011;62001;53.366;6.636;2023-03-04T04:16:09;13.50;;;2.27;;
52940;SDS011;62001;53.366;6.636;2023-03-04T04:18:35;7.80;;;1.87;;
52940;SDS011;62001;53.366;6.636;2023-03-04T04:21:02;12.90;;;2.20;;
52940;SDS011;62001;53.366;6.636;2023-03-04T04:23:28;17.97;;;2.43;;
52940;SDS011;62001;53.366;6.636;2023-03-04T04:25:55;12.97;;;2.30;;
52940;SDS011;62001;53.366;6.636;2023-03-04T04:28:22;12.13;;;2.57;;
52940;SDS011;62001;53.366;6.636;2023-03-04T04:30:48;17.07;;;2.23;;
52940;SDS011;62001;53.366;6.636;2023-03-04T04:33:14;15.87;;;2.37;;
52940;SDS011;62001;53.366;6.636;2023-03-04T04:35:40;16.20;;;2.60;;
52940;SDS011;62001;53.366;6.636;2023-03-04T04:38:07;10.63;;;2.10;;
52940;SDS011;62001;53.366;6.636;2023-03-04T04:40:33;15.37;;;2.20;;
52940;SDS011;62001;53.366;6.636;2023-03-04T04:42:59;15.63;;;2.37;;
52940;SDS011;62001;53.366;6.636;2023-03-04T04:45:25;16.07;;;2.67;;
52940;SDS011;62001;53.366;6.636;2023-03-04T04:47:54;18.07;;;2.93;;
52940;SDS011;62001;53.366;6.636;2023-03-04T04:50:22;15.60;;;2.25;;
52940;SDS011;62001;53.366;6.636;2023-03-04T04:52:48;18.90;;;2.90;;
52940;SDS011;62001;53.366;6.636;2023-03-04T04:55:14;21.07;;;3.00;;
52940;SDS011;62001;53.366;6.636;2023-03-04T04:57:40;17.43;;;2.80;;
52940;SDS011;62001;53.366;6.636;2023-03-04T05:00:07;16.57;;;3.00;;
52940;SDS011;62001;53.366;6.636;2023-03-04T05:02:34;25.80;;;3.47;;
52940;SDS011;62001;53.366;6.636;2023-03-04T05:05:03;15.20;;;2.67;;
52940;SDS011;62001;53.366;6.636;2023-03-04T05:07:30;21.63;;;3.00;;
52940;SDS011;62001;53.366;6.636;2023-03-04T05:09:56;23.97;;;3.30;;
52940;SDS011;62001;53.366;6.636;2023-03-04T05:12:22;19.57;;;2.87;;
52940;SDS011;62001;53.366;6.636;2023-03-04T05:14:47;24.17;;;3.27;;
52940;SDS011;62001;53.366;6.636;2023-03-04T05:17:13;20.37;;;3.30;;
52940;SDS011;62001;53.366;6.636;2023-03-04T05:19:39;19.67;;;3.40;;
52940;SDS011;62001;53.366;6.636;2023-03-04T05:22:05;21.10;;;2.63;;
52940;SDS011;62001;53.366;6.636;2023-03-04T05:24:31;21.00;;;3.07;;
52940;SDS011;62001;53.366;6.636;2023-03-04T05:26:57;16.40;;;2.70;;
52940;SDS011;62001;53.366;6.636;2023-03-04T05:29:23;16.33;;;2.80;;
52940;SDS011;62001;53.366;6.636;2023-03-04T05:31:49;13.50;;;2.40;;
52940;SDS011;62001;53.366;6.636;2023-03-04T05:34:15;17.57;;;2.70;;
52940;SDS011;62001;53.366;6.636;2023-03-04T05:36:41;17.33;;;3.00;;
52940;SDS011;62001;53.366;6.636;2023-03-04T05:39:06;20.67;;;2.80;;
52940;SDS011;62001;53.366;6.636;2023-03-04T05:41:32;25.57;;;2.73;;
52940;SDS011;62001;53.366;6.636;2023-03-04T05:43:58;19.67;;;2.77;;
52940;SDS011;62001;53.366;6.636;2023-03-04T05:46:24;17.50;;;2.63;;
52940;SDS011;62001;53.366;6.636;2023-03-04T05:48:50;18.63;;;2.63;;
52940;SDS011;62001;53.366;6.636;2023-03-04T05:51:18;13.00;;;2.40;;
52940;SDS011;62001;53.366;6.636;2023-03-04T05:53:44;18.53;;;2.60;;
52940;SDS011;62001;53.366;6.636;2023-03-04T05:56:11;16.70;;;3.30;;
52940;SDS011;62001;53.366;6.636;2023-03-04T05:58:39;16.83;;;2.10;;
52940;SDS011;62001;53.366;6.636;2023-03-04T06:01:05;14.07;;;2.17;;
52940;SDS011;62001;53.366;6.636;2023-03-04T06:03:31;12.87;;;1.83;;
52940;SDS011;62001;53.366;6.636;2023-03-04T06:05:57;12.60;;;2.20;;
52940;SDS011;62001;53.366;6.636;2023-03-04T06:08:23;11.90;;;1.73;;
52940;SDS011;62001;53.366;6.636;2023-03-04T06:10:51;15.83;;;1.93;;
52940;SDS011;62001;53.366;6.636;2023-03-04T06:13:18;9.90;;;1.73;;
52940;SDS011;62001;53.366;6.636;2023-03-04T06:15:44;8.83;;;1.47;;
52940;SDS011;62001;53.366;6.636;2023-03-04T06:18:10;9.03;;;1.77;;
52940;SDS011;62001;53.366;6.636;2023-03-04T06:20:36;11.63;;;1.70;;
52940;SDS011;62001;53.366;6.636;2023-03-04T06:23:02;20.03;;;2.40;;
52940;SDS011;62001;53.366;6.636;2023-03-04T06:25:28;14.07;;;2.13;;
52940;SDS011;62001;53.366;6.636;2023-03-04T06:27:54;17.47;;;2.50;;
52940;SDS011;62001;53.366;6.636;2023-03-04T06:30:20;17.10;;;2.50;;
52940;SDS011;62001;53.366;6.636;2023-03-04T06:32:46;16.77;;;2.77;;
52940;SDS011;62001;53.366;6.636;2023-03-04T06:35:12;15.33;;;2.63;;
52940;SDS011;62001;53.366;6.636;2023-03-04T06:37:39;19.37;;;3.00;;
52940;SDS011;62001;53.366;6.636;2023-03-04T06:40:05;19.13;;;2.77;;
52940;SDS011;62001;53.366;6.636;2023-03-04T06:42:32;17.33;;;2.60;;
52940;SDS011;62001;53.366;6.636;2023-03-04T06:44:59;17.80;;;3.23;;
52940;SDS011;62001;53.366;6.636;2023-03-04T06:47:25;22.30;;;4.50;;
52940;SDS011;62001;53.366;6.636;2023-03-04T06:49:51;29.60;;;4.30;;
52940;SDS011;62001;53.366;6.636;2023-03-04T06:52:17;35.13;;;5.10;;
52940;SDS011;62001;53.366;6.636;2023-03-04T06:54:43;32.63;;;4.90;;
52940;SDS011;62001;53.366;6.636;2023-03-04T06:57:09;28.17;;;5.00;;
52940;SDS011;62001;53.366;6.636;2023-03-04T06:59:35;25.60;;;4.47;;
52940;SDS011;62001;53.366;6.636;2023-03-04T07:02:00;30.60;;;4.97;;
52940;SDS011;62001;53.366;6.636;2023-03-04T07:04:26;36.60;;;5.00;;
52940;SDS011;62001;53.366;6.636;2023-03-04T07:06:52;33.73;;;4.90;;
52940;SDS011;62001;53.366;6.636;2023-03-04T07:09:18;40.40;;;5.73;;
52940;SDS011;62001;53.366;6.636;2023-03-04T07:11:45;29.23;;;4.90;;
52940;SDS011;62001;53.366;6.636;2023-03-04T07:14:11;28.43;;;4.53;;
52940;SDS011;62001;53.366;6.636;2023-03-04T07:16:37;30.87;;;4.87;;
52940;SDS011;62001;53.366;6.636;2023-03-04T07:19:02;31.03;;;4.47;;
52940;SDS011;62001;53.366;6.636;2023-03-04T07:21:28;27.40;;;4.37;;
52940;SDS011;62001;53.366;6.636;2023-03-04T07:23:54;27.30;;;4.13;;
52940;SDS011;62001;53.366;6.636;2023-03-04T07:26:20;28.13;;;4.77;;
52940;SDS011;62001;53.366;6.636;2023-03-04T07:28:46;29.17;;;4.50;;
52940;SDS011;62001;53.366;6.636;2023-03-04T07:31:20;27.07;;;4.23;;
52940;SDS011;62001;53.366;6.636;2023-03-04T07:33:48;36.03;;;5.03;;
52940;SDS011;62001;53.366;6.636;2023-03-04T07:36:14;21.80;;;4.23;;
52940;SDS011;62001;53.366;6.636;2023-03-04T07:38:44;31.93;;;4.80;;
52940;SDS011;62001;53.366;6.636;2023-03-04T07:41:12;30.00;;;4.80;;
52940;SDS011;62001;53.366;6.636;2023-03-04T07:43:38;30.83;;;4.87;;
52940;SDS011;62001;53.366;6.636;2023-03-04T07:46:03;33.27;;;4.73;;
52940;SDS011;62001;53.366;6.636;2023-03-04T07:48:29;30.30;;;5.73;;
52940;SDS011;62001;53.366;6.636;2023-03-04T07:51:04;30.03;;;5.07;;
52940;SDS011;62001;53.366;6.636;2023-03-04T07:53:36;34.67;;;4.78;;
52940;SDS011;62001;53.366;6.636;2023-03-04T07:56:02;29.93;;;4.77;;
52940;SDS011;62001;53.366;6.636;2023-03-04T07:58:30;26.50;;;4.40;;
52940;SDS011;62001;53.366;6.636;2023-03-04T08:00:56;27.17;;;5.13;;
52940;SDS011;62001;53.366;6.636;2023-03-04T08:03:22;33.07;;;5.00;;
52940;SDS011;62001;53.366;6.636;2023-03-04T08:05:48;24.37;;;4.23;;
52940;SDS011;62001;53.366;6.636;2023-03-04T08:08:14;19.27;;;4.10;;
52940;SDS011;62001;53.366;6.636;2023-03-04T08:10:40;21.77;;;4.13;;
52940;SDS011;62001;53.366;6.636;2023-03-04T08:13:06;19.10;;;3.10;;
52940;SDS011;62001;53.366;6.636;2023-03-04T08:15:32;28.57;;;3.63;;
52940;SDS011;62001;53.366;6.636;2023-03-04T08:17:59;15.87;;;3.57;;
52940;SDS011;62001;53.366;6.636;2023-03-04T08:20:26;28.07;;;3.70;;
52940;SDS011;62001;53.366;6.636;2023-03-04T08:22:52;19.93;;;3.53;;
52940;SDS011;62001;53.366;6.636;2023-03-04T08:25:18;19.60;;;3.63;;
52940;SDS011;62001;53.366;6.636;2023-03-04T08:27:43;24.87;;;3.90;;
52940;SDS011;62001;53.366;6.636;2023-03-04T08:30:09;25.20;;;4.13;;
52940;SDS011;62001;53.366;6.636;2023-03-04T08:32:36;20.33;;;3.93;;
52940;SDS011;62001;53.366;6.636;2023-03-04T08:35:01;21.20;;;4.17;;
52940;SDS011;62001;53.366;6.636;2023-03-04T08:37:28;22.13;;;3.73;;
52940;SDS011;62001;53.366;6.636;2023-03-04T08:39:54;19.30;;;3.87;;
52940;SDS011;62001;53.366;6.636;2023-03-04T08:42:20;24.57;;;4.10;;
52940;SDS011;62001;53.366;6.636;2023-03-04T08:44:46;24.50;;;3.97;;
52940;SDS011;62001;53.366;6.636;2023-03-04T08:47:11;24.93;;;3.87;;
52940;SDS011;62001;53.366;6.636;2023-03-04T08:49:37;26.57;;;4.33;;
52940;SDS011;62001;53.366;6.636;2023-03-04T08:52:03;22.50;;;4.00;;
52940;SDS011;62001;53.366;6.636;2023-03-04T08:54:29;23.90;;;4.00;;
52940;SDS011;62001;53.366;6.636;2023-03-04T08:56:55;26.50;;;3.70;;
52940;SDS011;62001;53.366;6.636;2023-03-04T08:59:21;20.50;;;3.60;;
52940;SDS011;62001;53.366;6.636;2023-03-04T09:01:46;14.07;;;2.63;;
52940;SDS011;62001;53.366;6.636;2023-03-04T09:04:12;17.63;;;3.13;;
52940;SDS011;62001;53.366;6.636;2023-03-04T09:06:38;13.87;;;2.70;;
52940;SDS011;62001;53.366;6.636;2023-03-04T09:09:04;13.07;;;2.10;;
52940;SDS011;62001;53.366;6.636;2023-03-04T09:11:30;9.10;;;1.60;;
52940;SDS011;62001;53.366;6.636;2023-03-04T09:13:56;12.63;;;2.00;;
52940;SDS011;62001;53.366;6.636;2023-03-04T09:16:22;9.03;;;1.93;;
52940;SDS011;62001;53.366;6.636;2023-03-04T09:18:47;12.77;;;1.83;;
52940;SDS011;62001;53.366;6.636;2023-03-04T09:21:13;9.97;;;1.80;;
52940;SDS011;62001;53.366;6.636;2023-03-04T09:23:39;8.00;;;1.80;;
52940;SDS011;62001;53.366;6.636;2023-03-04T09:28:43;11.87;;;1.90;;
52940;SDS011;62001;53.366;6.636;2023-03-04T09:31:12;17.33;;;2.40;;
52940;SDS011;62001;53.366;6.636;2023-03-04T09:33:39;11.50;;;2.22;;
52940;SDS011;62001;53.366;6.636;2023-03-04T09:36:08;8.53;;;1.97;;
52940;SDS011;62001;53.366;6.636;2023-03-04T09:38:38;14.17;;;2.50;;
52940;SDS011;62001;53.366;6.636;2023-03-04T09:41:08;15.45;;;2.22;;
52940;SDS011;62001;53.366;6.636;2023-03-04T09:43:38;15.47;;;2.60;;
52940;SDS011;62001;53.366;6.636;2023-03-04T09:46:07;21.47;;;4.13;;
52940;SDS011;62001;53.366;6.636;2023-03-04T09:48:47;23.87;;;4.37;;
52940;SDS011;62001;53.366;6.636;2023-03-04T09:51:34;22.07;;;4.00;;
52940;SDS011;62001;53.366;6.636;2023-03-04T09:54:29;33.97;;;4.50;;
52940;SDS011;62001;53.366;6.636;2023-03-04T09:57:13;27.27;;;5.20;;
52940;SDS011;62001;53.366;6.636;2023-03-04T09:59:43;22.40;;;4.30;;
52940;SDS011;62001;53.366;6.636;2023-03-04T10:02:43;22.73;;;4.50;;
52940;SDS011;62001;53.366;6.636;2023-03-04T10:05:17;18.07;;;3.57;;
52940;SDS011;62001;53.366;6.636;2023-03-04T10:07:46;19.90;;;4.00;;
52940;SDS011;62001;53.366;6.636;2023-03-04T10:10:18;22.27;;;4.10;;
52940;SDS011;62001;53.366;6.636;2023-03-04T10:12:49;24.60;;;3.83;;
52940;SDS011;62001;53.366;6.636;2023-03-04T10:15:22;22.50;;;4.33;;
52940;SDS011;62001;53.366;6.636;2023-03-04T10:17:48;25.70;;;4.30;;
52940;SDS011;62001;53.366;6.636;2023-03-04T10:22:48;27.07;;;3.93;;
52940;SDS011;62001;53.366;6.636;2023-03-04T10:25:31;22.63;;;3.97;;
52940;SDS011;62001;53.366;6.636;2023-03-04T10:28:00;25.60;;;4.70;;
52940;SDS011;62001;53.366;6.636;2023-03-04T10:33:15;22.77;;;3.67;;
52940;SDS011;62001;53.366;6.636;2023-03-04T10:35:44;26.97;;;4.23;;
52940;SDS011;62001;53.366;6.636;2023-03-04T10:38:18;21.10;;;4.00;;
52940;SDS011;62001;53.366;6.636;2023-03-04T10:40:46;20.80;;;3.90;;
52940;SDS011;62001;53.366;6.636;2023-03-04T10:43:15;25.27;;;4.07;;
52940;SDS011;62001;53.366;6.636;2023-03-04T10:45:45;24.50;;;4.07;;
52940;SDS011;62001;53.366;6.636;2023-03-04T10:48:23;18.73;;;3.73;;
52940;SDS011;62001;53.366;6.636;2023-03-04T10:50:50;21.37;;;3.80;;
52940;SDS011;62001;53.366;6.636;2023-03-04T10:53:27;27.13;;;4.30;;
52940;SDS011;62001;53.366;6.636;2023-03-04T10:55:57;23.97;;;4.17;;
52940;SDS011;62001;53.366;6.636;2023-03-04T10:58:23;23.93;;;3.60;;
52940;SDS011;62001;53.366;6.636;2023-03-04T11:00:59;19.47;;;3.50;;
52940;SDS011;62001;53.366;6.636;2023-03-04T11:03:31;19.33;;;3.28;;
52940;SDS011;62001;53.366;6.636;2023-03-04T11:06:08;17.75;;;3.67;;
52940;SDS011;62001;53.366;6.636;2023-03-04T11:08:40;22.52;;;3.63;;
52940;SDS011;62001;53.366;6.636;2023-03-04T11:13:57;23.67;;;4.10;;
52940;SDS011;62001;53.366;6.636;2023-03-04T11:16:27;21.83;;;3.60;;
52940;SDS011;62001;53.366;6.636;2023-03-04T11:19:00;22.33;;;4.57;;
52940;SDS011;62001;53.366;6.636;2023-03-04T11:21:31;22.63;;;3.73;;
52940;SDS011;62001;53.366;6.636;2023-03-04T11:24:05;26.70;;;4.50;;
52940;SDS011;62001;53.366;6.636;2023-03-04T11:26:52;17.80;;;4.00;;
52940;SDS011;62001;53.366;6.636;2023-03-04T11:29:30;18.03;;;3.63;;
52940;SDS011;62001;53.366;6.636;2023-03-04T11:32:08;22.87;;;4.20;;
52940;SDS011;62001;53.366;6.636;2023-03-04T11:34:53;19.63;;;3.70;;
52940;SDS011;62001;53.366;6.636;2023-03-04T11:43:05;22.23;;;3.97;;
52940;SDS011;62001;53.366;6.636;2023-03-04T11:46:21;23.90;;;4.03;;
52940;SDS011;62001;53.366;6.636;2023-03-04T11:48:50;28.20;;;4.17;;
52940;SDS011;62001;53.366;6.636;2023-03-04T11:57:20;29.53;;;5.20;;
52940;SDS011;62001;53.366;6.636;2023-03-04T12:05:40;24.60;;;4.23;;
52940;SDS011;62001;53.366;6.636;2023-03-04T12:08:20;29.55;;;4.47;;
52940;SDS011;62001;53.366;6.636;2023-03-04T12:11:00;25.93;;;4.27;;
52940;SDS011;62001;53.366;6.636;2023-03-04T12:19:13;21.08;;;4.18;;
52940;SDS011;62001;53.366;6.636;2023-03-04T12:27:21;28.93;;;4.53;;
52940;SDS011;62001;53.366;6.636;2023-03-04T12:48:47;23.83;;;4.27;;
52940;SDS011;62001;53.366;6.636;2023-03-04T12:54:17;24.57;;;4.23;;
52940;SDS011;62001;53.366;6.636;2023-03-04T12:59:19;17.77;;;3.20;;
52940;SDS011;62001;53.366;6.636;2023-03-04T13:01:50;21.30;;;4.63;;
52940;SDS011;62001;53.366;6.636;2023-03-04T13:04:40;20.98;;;3.33;;
52940;SDS011;62001;53.366;6.636;2023-03-04T13:07:12;23.10;;;3.77;;
52940;SDS011;62001;53.366;6.636;2023-03-04T13:09:49;17.63;;;3.37;;
52940;SDS011;62001;53.366;6.636;2023-03-04T13:12:22;17.93;;;3.47;;
52940;SDS011;62001;53.366;6.636;2023-03-04T13:17:41;18.93;;;4.00;;
52940;SDS011;62001;53.366;6.636;2023-03-04T13:20:12;24.70;;;4.20;;
52940;SDS011;62001;53.366;6.636;2023-03-04T13:28:19;21.33;;;3.57;;
52940;SDS011;62001;53.366;6.636;2023-03-04T13:43:40;26.97;;;4.43;;
52940;SDS011;62001;53.366;6.636;2023-03-04T13:56:24;20.73;;;3.40;;
52940;SDS011;62001;53.366;6.636;2023-03-04T14:01:46;21.00;;;4.20;;
52940;SDS011;62001;53.366;6.636;2023-03-04T14:04:20;22.13;;;4.47;;
52940;SDS011;62001;53.366;6.636;2023-03-04T14:07:01;29.23;;;4.47;;
52940;SDS011;62001;53.366;6.636;2023-03-04T14:09:40;21.97;;;3.93;;
52940;SDS011;62001;53.366;6.636;2023-03-04T14:12:35;20.50;;;3.50;;
52940;SDS011;62001;53.366;6.636;2023-03-04T14:17:45;24.67;;;3.67;;
52940;SDS011;62001;53.366;6.636;2023-03-04T14:23:02;19.33;;;3.13;;
52940;SDS011;62001;53.366;6.636;2023-03-04T14:25:31;15.73;;;2.73;;
52940;SDS011;62001;53.366;6.636;2023-03-04T14:28:18;14.10;;;2.77;;
52940;SDS011;62001;53.366;6.636;2023-03-04T14:30:54;16.80;;;3.20;;
52940;SDS011;62001;53.366;6.636;2023-03-04T14:33:26;16.30;;;3.00;;
52940;SDS011;62001;53.366;6.636;2023-03-04T14:35:57;13.70;;;2.93;;
52940;SDS011;62001;53.366;6.636;2023-03-04T14:38:34;14.43;;;2.93;;
52940;SDS011;62001;53.366;6.636;2023-03-04T14:41:17;16.80;;;2.92;;
52940;SDS011;62001;53.366;6.636;2023-03-04T14:46:47;14.40;;;2.90;;
52940;SDS011;62001;53.366;6.636;2023-03-04T14:49:16;18.75;;;3.05;;
52940;SDS011;62001;53.366;6.636;2023-03-04T14:51:49;15.50;;;3.03;;
52940;SDS011;62001;53.366;6.636;2023-03-04T14:59:45;15.30;;;2.60;;
52940;SDS011;62001;53.366;6.636;2023-03-04T15:05:19;16.30;;;3.43;;
52940;SDS011;62001;53.366;6.636;2023-03-04T15:07:51;23.57;;;3.60;;
52940;SDS011;62001;53.366;6.636;2023-03-04T15:10:26;16.57;;;3.37;;
52940;SDS011;62001;53.366;6.636;2023-03-04T15:12:56;18.57;;;3.43;;
52940;SDS011;62001;53.366;6.636;2023-03-04T15:18:01;18.50;;;3.47;;
52940;SDS011;62001;53.366;6.636;2023-03-04T15:20:29;19.87;;;3.37;;
52940;SDS011;62001;53.366;6.636;2023-03-04T15:23:01;24.93;;;3.87;;
52940;SDS011;62001;53.366;6.636;2023-03-04T15:25:28;18.50;;;3.33;;
52940;SDS011;62001;53.366;6.636;2023-03-04T15:27:55;22.67;;;3.50;;
52940;SDS011;62001;53.366;6.636;2023-03-04T15:32:52;16.97;;;3.33;;
52940;SDS011;62001;53.366;6.636;2023-03-04T15:35:19;27.10;;;3.90;;
52940;SDS011;62001;53.366;6.636;2023-03-04T15:37:45;16.93;;;3.47;;
52940;SDS011;62001;53.366;6.636;2023-03-04T15:40:15;18.53;;;3.83;;
52940;SDS011;62001;53.366;6.636;2023-03-04T15:42:43;24.45;;;3.72;;
52940;SDS011;62001;53.366;6.636;2023-03-04T15:47:47;25.50;;;4.17;;
52940;SDS011;62001;53.366;6.636;2023-03-04T15:50:14;21.80;;;4.47;;
52940;SDS011;62001;53.366;6.636;2023-03-04T15:52:40;19.20;;;3.90;;
52940;SDS011;62001;53.366;6.636;2023-03-04T15:55:08;27.20;;;4.23;;
52940;SDS011;62001;53.366;6.636;2023-03-04T15:57:39;27.83;;;4.43;;
52940;SDS011;62001;53.366;6.636;2023-03-04T16:00:05;15.43;;;2.93;;
52940;SDS011;62001;53.366;6.636;2023-03-04T16:02:32;16.27;;;2.73;;
52940;SDS011;62001;53.366;6.636;2023-03-04T16:04:58;17.00;;;3.10;;
52940;SDS011;62001;53.366;6.636;2023-03-04T16:07:24;20.60;;;3.00;;
52940;SDS011;62001;53.366;6.636;2023-03-04T16:10:01;21.50;;;3.38;;
52940;SDS011;62001;53.366;6.636;2023-03-04T16:12:41;17.70;;;3.40;;
52940;SDS011;62001;53.366;6.636;2023-03-04T16:15:13;17.37;;;3.43;;
52940;SDS011;62001;53.366;6.636;2023-03-04T16:17:44;16.40;;;3.27;;
52940;SDS011;62001;53.366;6.636;2023-03-04T16:20:11;17.80;;;3.43;;
52940;SDS011;62001;53.366;6.636;2023-03-04T16:22:38;16.93;;;3.20;;
52940;SDS011;62001;53.366;6.636;2023-03-04T16:25:08;18.17;;;3.27;;
52940;SDS011;62001;53.366;6.636;2023-03-04T16:27:35;22.47;;;3.70;;
52940;SDS011;62001;53.366;6.636;2023-03-04T16:30:01;21.43;;;3.50;;
52940;SDS011;62001;53.366;6.636;2023-03-04T16:32:27;24.70;;;3.53;;
52940;SDS011;62001;53.366;6.636;2023-03-04T16:34:52;21.10;;;3.50;;
52940;SDS011;62001;53.366;6.636;2023-03-04T16:37:18;21.23;;;3.50;;
52940;SDS011;62001;53.366;6.636;2023-03-04T16:39:45;18.57;;;3.20;;
52940;SDS011;62001;53.366;6.636;2023-03-04T16:42:16;20.33;;;2.73;;
52940;SDS011;62001;53.366;6.636;2023-03-04T16:44:46;21.83;;;3.57;;
52940;SDS011;62001;53.366;6.636;2023-03-04T16:47:15;24.90;;;3.70;;
52940;SDS011;62001;53.366;6.636;2023-03-04T16:49:41;14.93;;;3.43;;
52940;SDS011;62001;53.366;6.636;2023-03-04T16:52:07;15.57;;;3.27;;
52940;SDS011;62001;53.366;6.636;2023-03-04T16:54:55;11.27;;;2.33;;